Informes de METARS cercanos

 

LEAL - Alicante/El Alte, Spain
Distance from station: SSE 60km
Actualización: 26/10/2020 13:30
Parcialmente nuboso
Parcialmente nuboso
 Viento del ONO
Viento: ONO 37 km/h, Racha: 59 km/h
Temperatura: 20°C
Rocío: 2°C
Humedad: 30%
Barómetro: 1016 hPa
Clouds: Parcialmente nuboso
Visibility: 10 km
Cloud details: Parcialmente nuboso 610 m
2020/10/26 12:30 LEAL 261230Z 30020G32KT 9999 SCT020 20/02 Q1016 NOSIG
LEVC - Valencia (civ/Mi, Spain
Distance from station: NNE 84km
Actualización: 26/10/2020 13:30
Few Clouds
Few Clouds
 Viento del O
Viento: O 28 km/h
Temperatura: 21°C
Rocío: 2°C
Humedad: 29%
Barómetro: 1014 hPa
Clouds: Few Clouds
Visibility: 10 km
Cloud details: Few Clouds 914 m
2020/10/26 12:30 LEVC 261230Z 28015KT 250V330 9999 FEW030 21/02 Q1014 NOSIG
 
LEAB - Albacete (civ/Mi, Spain
Distance from station: O 95km
Actualización: 26/10/2020 13:30
Parcialmente nuboso
Parcialmente nuboso
 Viento del NO
Viento: NO 31 km/h
Temperatura: 11°C
Rocío: 3°C
Humedad: 58%
Barómetro: 1018 hPa
Clouds: Parcialmente nuboso
Visibility: 10 km
Cloud details: Parcialmente nuboso 1067 m
2020/10/26 12:30 LEAB 261230Z 31017KT 9999 SCT035 11/03 Q1018 NOSIG
LERI - Alcantarilla(Sp-, Spain
Distance from station: SSO 100km
Actualización: 26/10/2020 13:30
Few Clouds
Few Clouds
 Viento del NO
Viento: NO 28 km/h
Temperatura: 20°C
Rocío: 1°C
Humedad: 28%
Barómetro: 1016 hPa
Clouds: Few Clouds
Visibility: 10 km
Cloud details: Few Clouds 1189 m
2020/10/26 12:30 LERI 261230Z 31015KT 260V340 9999 FEW039 20/01 Q1016 NOSIG
 
LELC - San Javier(Mil/C, Spain
Distance from station: S 113km
Actualización: 26/10/2020 13:30
Few Clouds
Few Clouds
 Viento del ONO
Viento: ONO 31 km/h, Racha: 50 km/h
Temperatura: 21°C
Rocío: 2°C
Humedad: 29%
Barómetro: 1016 hPa
Clouds: Few Clouds
Visibility: 10 km
Cloud details: Few Clouds 457 m
2020/10/26 12:30 LELC 261230Z 30017G27KT 9999 FEW015 21/02 Q1016 NOSIG
LEIB - Ibiza/Es Codola, Spain
Distance from station: E 186km
Actualización: 26/10/2020 13:30
Few Clouds
Few Clouds
 Viento del NO
Viento: NO 30 km/h
Temperatura: 18°C
Rocío: 5°C
Humedad: 43%
Barómetro: 1014 hPa
Clouds: Few Clouds
Visibility: 10 km
Cloud details: Few Clouds 1372 m
2020/10/26 12:30 LEIB 261230Z 31016KT 280V340 9999 FEW045 18/05 Q1014 NOSIG
 
LEAM - Almeria Airport, Spain
Distance from station: SSO 256km
Actualización: 26/10/2020 13:30
Few Clouds
Few Clouds
 Viento del SO
Viento: SO 20 km/h
Temperatura: 20°C
Rocío: 12°C
Humedad: 60%
Barómetro: 1016 hPa
Clouds: Few Clouds
Visibility: 10 km
Cloud details: Few Clouds 1219 m
2020/10/26 12:30 LEAM 261230Z 23011KT 190V260 9999 FEW040 20/12 Q1016
LEMD - Madrid/Barajas, Spain
Distance from station: NO 305km
Actualización: 26/10/2020 13:30
Parcialmente nuboso
Parcialmente nuboso
 Viento del O
Viento: O 13 km/h
Temperatura: 13°C
Rocío: 3°C
Humedad: 51%
Barómetro: 1018 hPa
Clouds: Parcialmente nuboso
Visibility: 10 km
Cloud details: Parcialmente nuboso 1676 m
2020/10/26 12:30 LEMD 261230Z 28007KT 240V310 9999 SCT055 13/03 Q1018 R88/29//95 NOSIG
 
LEPA - Palma De Mallorc, Spain
Distance from station: ENE 313km
Actualización: 26/10/2020 13:30
Few Clouds
Few Clouds
 Viento del NO
Viento: NO 31 km/h, Racha: 54 km/h
Temperatura: 19°C
Rocío: 8°C
Humedad: 49%
Barómetro: 1012 hPa
Clouds: Few Clouds
Visibility: 10 km
Cloud details: Few Clouds 914 m
2020/10/26 12:30 LEPA 261230Z 32017G29KT 280V350 9999 FEW030 19/08 Q1012 NOSIG